Time;durP1;ratioP1;P1;durP2;ratioP2;P2;SDS_P1;SDS_P2;PMS_P1;PMS_P2;Temp;Humidity;BMP_temperature;BMP_pressure;BME280_temperature;BME280_humidity;BME280_pressure;Samples;Min_cycle;Max_cycle;Signal;HPM_P1;HPM_P2
2023/05/04 00:00:42;;;;;;;8.45;5.75;;;10.80;72.00;;;;;;5013534;28;20037;-64
2023/05/04 00:03:07;;;;;;;5.97;5.45;;;10.70;72.00;;;;;;5016539;28;20203;-64
2023/05/04 00:05:33;;;;;;;6.75;5.82;;;10.70;71.90;;;;;;5013223;28;20516;-63
2023/05/04 00:07:58;;;;;;;7.97;6.60;;;10.70;71.80;;;;;;5015370;28;20033;-64
2023/05/04 00:10:25;;;;;;;8.43;6.10;;;10.70;71.90;;;;;;5015395;28;20056;-64
2023/05/04 00:12:51;;;;;;;6.80;5.90;;;10.60;72.00;;;;;;5015442;28;20037;-64
2023/05/04 00:15:16;;;;;;;6.47;5.63;;;10.60;72.00;;;;;;5011049;28;20052;-64
2023/05/04 00:17:42;;;;;;;6.63;5.70;;;10.50;72.00;;;;;;5015311;28;20082;-64
2023/05/04 00:20:08;;;;;;;6.20;5.60;;;10.50;72.10;;;;;;5015874;28;20525;-64
2023/05/04 00:22:34;;;;;;;8.82;6.22;;;10.40;72.00;;;;;;5016680;28;20038;-64
2023/05/04 00:25:00;;;;;;;6.95;6.28;;;10.30;72.10;;;;;;5012557;28;21596;-64
2023/05/04 00:27:25;;;;;;;7.05;6.35;;;10.30;72.20;;;;;;5017540;28;20516;-64
2023/05/04 00:29:51;;;;;;;6.95;6.18;;;10.30;72.20;;;;;;5015747;28;20029;-64
2023/05/04 00:32:16;;;;;;;7.20;6.38;;;10.20;72.40;;;;;;5016786;28;20095;-64
2023/05/04 00:34:42;;;;;;;8.40;7.13;;;10.10;72.50;;;;;;5018105;28;20404;-64
2023/05/04 00:37:07;;;;;;;7.50;6.43;;;10.10;72.60;;;;;;5015767;28;20049;-64
2023/05/04 00:39:36;;;;;;;8.48;6.68;;;10.00;72.70;;;;;;5016356;28;20191;-63
2023/05/04 00:42:02;;;;;;;8.00;6.63;;;10.00;72.80;;;;;;5013891;28;20533;-64
2023/05/04 00:44:28;;;;;;;7.72;6.93;;;9.90;72.80;;;;;;5015040;28;20045;-65
2023/05/04 00:46:54;;;;;;;8.93;7.13;;;9.90;73.00;;;;;;5013874;28;20033;-64
2023/05/04 00:49:20;;;;;;;7.93;7.13;;;9.80;73.00;;;;;;5014359;28;20037;-64
2023/05/04 00:51:47;;;;;;;8.45;7.53;;;9.80;73.10;;;;;;5016616;28;20038;-64
2023/05/04 00:54:15;;;;;;;8.35;7.40;;;9.70;73.10;;;;;;5012290;28;20041;-64
2023/05/04 00:56:42;;;;;;;8.70;7.80;;;9.70;73.30;;;;;;5014237;28;20121;-64
2023/05/04 00:59:08;;;;;;;9.70;8.60;;;9.60;73.50;;;;;;5016484;28;20451;-64
2023/05/04 01:01:33;;;;;;;10.75;8.88;;;9.60;73.70;;;;;;5016394;28;20326;-64
2023/05/04 01:03:59;;;;;;;9.82;8.70;;;9.60;73.80;;;;;;5014955;28;20521;-64
2023/05/04 01:06:44;;;;;;;9.13;8.23;;;9.50;73.90;;;;;;5014765;28;20033;-63
2023/05/04 01:09:36;;;;;;;9.30;8.13;;;9.50;74.00;;;;;;5015385;28;20512;-64
2023/05/04 01:12:16;;;;;;;9.52;8.30;;;9.50;74.90;;;;;;5018005;28;20029;-64
2023/05/04 01:14:42;;;;;;;8.98;7.80;;;9.40;74.20;;;;;;5013632;28;20537;-63
2023/05/04 01:17:08;;;;;;;14.18;8.63;;;9.40;74.00;;;;;;5011391;28;20130;-64
2023/05/04 01:19:34;;;;;;;9.82;8.82;;;9.40;74.20;;;;;;5001316;28;20065;-64
2023/05/04 01:21:59;;;;;;;10.90;9.48;;;9.30;74.40;;;;;;4994819;28;20042;-64
2023/05/04 01:24:26;;;;;;;13.18;10.25;;;9.30;74.70;;;;;;4992601;28;20108;-64
2023/05/04 01:27:01;;;;;;;11.20;9.52;;;9.30;74.80;;;;;;4992783;28;20038;-64
2023/05/04 01:29:39;;;;;;;11.90;9.50;;;9.30;75.00;;;;;;4994680;28;20088;-64
2023/05/04 01:32:05;;;;;;;10.93;9.57;;;9.20;75.30;;;;;;4996804;28;20514;-64
2023/05/04 01:34:31;;;;;;;14.52;10.93;;;9.20;75.00;;;;;;4995306;28;20038;-65
2023/05/04 01:36:58;;;;;;;14.25;10.95;;;9.20;75.30;;;;;;4993836;28;20027;-64
2023/05/04 01:39:23;;;;;;;12.18;10.52;;;9.10;75.70;;;;;;4993112;28;20041;-64
2023/05/04 01:41:49;;;;;;;13.30;10.45;;;9.10;76.80;;;;;;4992153;28;20045;-64
2023/05/04 01:44:15;;;;;;;13.18;10.75;;;9.10;76.00;;;;;;4995645;28;20096;-64
2023/05/04 01:46:41;;;;;;;12.30;10.65;;;9.10;76.00;;;;;;4991293;28;20651;-64
2023/05/04 01:49:06;;;;;;;14.50;11.25;;;9.10;76.10;;;;;;4992991;28;20050;-64
2023/05/04 01:51:32;;;;;;;12.77;10.57;;;9.10;76.30;;;;;;4994257;28;20049;-64
2023/05/04 01:53:57;;;;;;;12.70;9.88;;;9.10;76.40;;;;;;4991287;28;20034;-64
2023/05/04 01:56:23;;;;;;;14.68;10.50;;;9.10;76.30;;;;;;4993876;28;20128;-64
2023/05/04 01:58:49;;;;;;;12.63;10.38;;;9.10;76.50;;;;;;4991710;28;20721;-64
2023/05/04 02:01:14;;;;;;;13.35;10.38;;;9.10;76.60;;;;;;4990451;28;20053;-64
2023/05/04 02:03:40;;;;;;;13.77;10.75;;;9.10;76.60;;;;;;4991789;28;20030;-64
2023/05/04 02:06:06;;;;;;;16.38;10.65;;;9.20;76.60;;;;;;4992853;28;20141;-64
2023/05/04 02:08:32;;;;;;;12.80;10.65;;;9.20;76.50;;;;;;4995800;28;20038;-64
2023/05/04 02:10:57;;;;;;;13.00;10.38;;;9.20;76.50;;;;;;4995624;28;20113;-64
2023/05/04 02:13:23;;;;;;;13.32;10.98;;;9.20;76.50;;;;;;4994723;28;20464;-64
2023/05/04 02:15:49;;;;;;;14.25;10.75;;;9.20;76.60;;;;;;4990370;28;20447;-64
2023/05/04 02:18:14;;;;;;;14.30;11.02;;;9.10;76.60;;;;;;4993185;28;20042;-64
2023/05/04 02:20:40;;;;;;;13.82;10.68;;;9.10;76.60;;;;;;4993213;28;20088;-64
2023/05/04 02:23:05;;;;;;;12.23;9.68;;;9.00;76.50;;;;;;4991798;28;20030;-64
2023/05/04 02:25:31;;;;;;;11.55;10.05;;;9.10;76.60;;;;;;4991493;28;20031;-64
2023/05/04 02:27:57;;;;;;;14.40;9.43;;;9.00;76.40;;;;;;4991774;28;20085;-64
2023/05/04 02:30:22;;;;;;;10.88;9.35;;;9.00;76.50;;;;;;4994531;28;20081;-64
2023/05/04 02:32:48;;;;;;;11.23;9.23;;;9.00;76.30;;;;;;4995201;28;20556;-64
2023/05/04 02:35:13;;;;;;;10.80;9.60;;;9.00;76.30;;;;;;4993432;28;20068;-64
2023/05/04 02:37:39;;;;;;;12.50;9.82;;;9.00;76.20;;;;;;4995511;28;20030;-64
2023/05/04 02:40:05;;;;;;;13.15;10.35;;;9.00;76.10;;;;;;4993947;28;20096;-64
2023/05/04 02:42:31;;;;;;;12.70;10.00;;;9.00;76.10;;;;;;4993613;28;20031;-64
2023/05/04 02:44:56;;;;;;;18.67;10.40;;;9.00;76.10;;;;;;4993786;28;20040;-64
2023/05/04 02:47:22;;;;;;;13.85;10.40;;;9.00;76.10;;;;;;4993921;28;20042;-64
2023/05/04 02:49:48;;;;;;;12.23;9.57;;;9.00;76.20;;;;;;4989621;28;20033;-64
2023/05/04 02:52:13;;;;;;;12.70;10.15;;;9.00;76.20;;;;;;4994456;28;20034;-64
2023/05/04 02:54:39;;;;;;;13.55;10.95;;;9.00;77.00;;;;;;4991233;28;20065;-64
2023/05/04 02:57:05;;;;;;;14.45;11.07;;;9.00;76.20;;;;;;4992473;28;20041;-64
2023/05/04 02:59:31;;;;;;;14.55;11.10;;;9.00;76.50;;;;;;4992995;28;20035;-64
2023/05/04 03:01:57;;;;;;;12.55;10.85;;;9.10;77.00;;;;;;4992391;28;20044;-64
2023/05/04 03:04:22;;;;;;;16.10;11.20;;;9.10;77.30;;;;;;4990674;28;20706;-64
2023/05/04 03:06:48;;;;;;;13.15;11.23;;;9.10;77.40;;;;;;4992575;28;20080;-64
2023/05/04 03:09:13;;;;;;;15.52;10.80;;;9.10;77.50;;;;;;4991747;28;20042;-64
2023/05/04 03:11:39;;;;;;;14.07;10.70;;;9.10;77.50;;;;;;4997572;28;20034;-64
2023/05/04 03:14:05;;;;;;;14.48;11.43;;;9.20;77.60;;;;;;4995867;28;20045;-64
2023/05/04 03:16:31;;;;;;;18.58;11.95;;;9.10;77.50;;;;;;4994862;28;20130;-64
2023/05/04 03:18:57;;;;;;;13.73;10.90;;;9.20;77.70;;;;;;4996891;28;20062;-64
2023/05/04 03:21:22;;;;;;;15.35;11.07;;;9.20;77.70;;;;;;4996921;28;20096;-64
2023/05/04 03:23:48;;;;;;;13.50;10.60;;;9.20;77.70;;;;;;4994684;28;20045;-64
2023/05/04 03:26:13;;;;;;;13.48;11.15;;;9.20;77.60;;;;;;4993651;28;20387;-63
2023/05/04 03:28:39;;;;;;;13.70;10.57;;;9.20;77.50;;;;;;4996785;28;20057;-64
2023/05/04 03:31:04;;;;;;;15.43;10.38;;;9.20;77.50;;;;;;4993182;28;20042;-64
2023/05/04 03:33:30;;;;;;;13.90;11.02;;;9.30;77.50;;;;;;4997172;28;20034;-64
2023/05/04 03:35:56;;;;;;;15.60;11.45;;;9.20;77.40;;;;;;4993221;28;20123;-64
2023/05/04 03:38:21;;;;;;;17.13;11.65;;;9.30;77.30;;;;;;4994411;28;20041;-64
2023/05/04 03:40:47;;;;;;;13.57;10.73;;;9.20;77.30;;;;;;4993032;28;20119;-64
2023/05/04 03:43:12;;;;;;;13.40;10.27;;;9.20;77.30;;;;;;4995214;28;20116;-64
2023/05/04 03:45:38;;;;;;;15.02;11.32;;;9.10;77.40;;;;;;4994339;28;20042;-64
2023/05/04 03:48:04;;;;;;;15.52;11.35;;;9.10;77.50;;;;;;4996350;28;20044;-64
2023/05/04 03:50:30;;;;;;;14.60;11.20;;;9.10;77.70;;;;;;4994504;28;20652;-64
2023/05/04 03:52:56;;;;;;;15.55;11.68;;;9.10;77.90;;;;;;4992789;28;20185;-63
2023/05/04 03:55:21;;;;;;;14.80;10.70;;;9.10;78.00;;;;;;4997005;28;20100;-64
2023/05/04 03:57:47;;;;;;;15.05;11.13;;;9.10;78.00;;;;;;4996411;28;20366;-64
2023/05/04 04:00:14;;;;;;;16.92;11.77;;;9.00;77.70;;;;;;4995215;28;20441;-64
2023/05/04 04:02:39;;;;;;;16.58;11.32;;;9.10;77.80;;;;;;4996260;28;20109;-64
2023/05/04 04:05:06;;;;;;;13.95;11.30;;;9.10;77.90;;;;;;4993420;28;20064;-64
2023/05/04 04:07:32;;;;;;;15.10;11.40;;;9.00;77.90;;;;;;4993225;28;20030;-64
2023/05/04 04:09:57;;;;;;;15.27;11.55;;;9.00;78.00;;;;;;4993538;28;20042;-64
2023/05/04 04:12:23;;;;;;;17.05;12.00;;;9.00;78.20;;;;;;4994712;28;20054;-64
2023/05/04 04:14:51;;;;;;;16.00;12.07;;;9.10;78.50;;;;;;4993215;28;20173;-64
2023/05/04 04:17:17;;;;;;;14.10;11.20;;;9.10;78.60;;;;;;4994081;28;20499;-63
2023/05/04 04:19:42;;;;;;;16.05;12.35;;;9.00;78.60;;;;;;4996658;28;20052;-64
2023/05/04 04:22:08;;;;;;;16.80;11.65;;;9.10;78.60;;;;;;4992539;28;20247;-64
2023/05/04 04:24:33;;;;;;;17.15;11.55;;;9.10;78.60;;;;;;4995888;28;20029;-64
2023/05/04 04:26:59;;;;;;;14.75;11.55;;;9.10;78.50;;;;;;4990994;28;20037;-64
2023/05/04 04:29:26;;;;;;;14.00;10.88;;;9.10;78.50;;;;;;4986665;28;20137;-64
2023/05/04 04:31:51;;;;;;;17.20;11.93;;;9.10;78.50;;;;;;4991826;28;20030;-64
2023/05/04 04:34:17;;;;;;;15.52;10.65;;;9.20;78.50;;;;;;4993492;28;20568;-64
2023/05/04 04:36:43;;;;;;;15.27;11.57;;;9.20;78.40;;;;;;4992606;28;20148;-63
2023/05/04 04:39:09;;;;;;;17.27;11.88;;;9.20;78.50;;;;;;4994335;28;20045;-64
2023/05/04 04:41:35;;;;;;;18.00;11.85;;;9.20;78.40;;;;;;4990755;28;20617;-64
2023/05/04 04:44:01;;;;;;;15.35;11.18;;;9.20;78.40;;;;;;4994407;28;20457;-64
2023/05/04 04:46:27;;;;;;;16.75;11.05;;;9.20;78.40;;;;;;4994379;28;20035;-64
2023/05/04 04:48:54;;;;;;;17.10;11.02;;;9.20;78.40;;;;;;4993920;28;20042;-64
2023/05/04 04:51:20;;;;;;;14.73;11.35;;;9.20;78.40;;;;;;4995324;28;20226;-64
2023/05/04 04:53:45;;;;;;;16.80;11.55;;;9.20;78.40;;;;;;4994912;28;20030;-63
2023/05/04 04:56:11;;;;;;;13.98;11.18;;;9.20;78.40;;;;;;4994185;28;20041;-63
2023/05/04 04:58:37;;;;;;;15.20;11.38;;;9.20;78.30;;;;;;4994398;28;20048;-64
2023/05/04 05:01:03;;;;;;;17.00;12.02;;;9.20;78.20;;;;;;4993669;28;20775;-64
2023/05/04 05:03:30;;;;;;;17.75;12.85;;;9.20;78.30;;;;;;4995794;28;20756;-64
2023/05/04 05:05:55;;;;;;;18.60;12.63;;;9.30;78.60;;;;;;4994292;28;20049;-64
2023/05/04 05:08:21;;;;;;;16.35;12.50;;;9.30;78.70;;;;;;4993612;28;20804;-64
2023/05/04 05:10:47;;;;;;;16.75;12.57;;;9.30;78.90;;;;;;4993280;28;20046;-64
2023/05/04 05:13:13;;;;;;;16.88;12.82;;;9.30;79.30;;;;;;4995984;28;20037;-64
2023/05/04 05:15:38;;;;;;;18.75;13.13;;;9.30;79.60;;;;;;4996792;28;20061;-64
2023/05/04 05:18:04;;;;;;;16.15;12.30;;;9.30;79.70;;;;;;4992162;28;20180;-64
2023/05/04 05:20:30;;;;;;;19.95;12.77;;;9.30;79.90;;;;;;4992894;28;20418;-64
2023/05/04 05:22:56;;;;;;;19.65;13.23;;;9.30;80.10;;;;;;4996040;28;20041;-64
2023/05/04 05:25:22;;;;;;;17.60;12.55;;;9.30;80.30;;;;;;4994502;28;20038;-64
2023/05/04 05:27:48;;;;;;;16.83;12.45;;;9.30;80.40;;;;;;4996455;28;20026;-64
2023/05/04 05:30:14;;;;;;;18.63;12.48;;;9.30;80.50;;;;;;4995479;28;20126;-64
2023/05/04 05:32:40;;;;;;;21.08;13.25;;;9.40;80.80;;;;;;4996339;28;20038;-64
2023/05/04 05:35:06;;;;;;;16.90;13.02;;;9.40;81.00;;;;;;4997204;28;20072;-63
2023/05/04 05:37:31;;;;;;;17.77;13.52;;;9.40;81.00;;;;;;4995119;28;20038;-64
2023/05/04 05:39:57;;;;;;;18.42;13.18;;;9.40;81.30;;;;;;4995199;28;20033;-64
2023/05/04 05:42:23;;;;;;;18.58;13.82;;;9.50;81.30;;;;;;4997103;28;20405;-64
2023/05/04 05:44:48;;;;;;;19.05;12.77;;;9.50;81.50;;;;;;4993843;28;20042;-64
2023/05/04 05:47:14;;;;;;;18.40;13.00;;;9.50;81.40;;;;;;4995049;28;20046;-63
2023/05/04 05:49:40;;;;;;;19.27;13.00;;;9.50;81.70;;;;;;4995074;28;20048;-64
2023/05/04 05:52:06;;;;;;;20.88;12.13;;;9.60;81.70;;;;;;4991820;28;20081;-64
2023/05/04 05:54:33;;;;;;;17.10;12.75;;;9.70;81.90;;;;;;4988692;28;20069;-64
2023/05/04 05:56:58;;;;;;;17.55;13.25;;;9.70;82.70;;;;;;4991196;28;20035;-64
2023/05/04 05:59:24;;;;;;;17.33;12.98;;;9.80;81.90;;;;;;4993334;28;20578;-64
2023/05/04 06:01:50;;;;;;;16.50;12.38;;;9.90;81.90;;;;;;4994775;28;20053;-64
2023/05/04 06:04:15;;;;;;;17.80;12.88;;;10.00;81.90;;;;;;4996110;28;20045;-64
2023/05/04 06:06:41;;;;;;;17.30;13.27;;;10.00;82.00;;;;;;4992352;28;20037;-64
2023/05/04 06:09:06;;;;;;;18.63;13.48;;;10.10;81.90;;;;;;4993933;28;20050;-64
2023/05/04 06:11:32;;;;;;;17.88;13.63;;;10.10;82.20;;;;;;4994619;28;20030;-64
2023/05/04 06:13:58;;;;;;;17.95;13.07;;;10.20;82.30;;;;;;4995083;28;20102;-64
2023/05/04 06:16:23;;;;;;;16.65;12.98;;;10.30;82.10;;;;;;4993013;28;20087;-64
2023/05/04 06:18:50;;;;;;;17.85;13.18;;;10.30;82.30;;;;;;4993517;28;20588;-63
2023/05/04 06:21:16;;;;;;;22.13;14.40;;;10.40;82.20;;;;;;4994583;28;20426;-63
2023/05/04 06:23:42;;;;;;;20.88;14.00;;;10.50;82.50;;;;;;4995751;28;20104;-64
2023/05/04 06:26:07;;;;;;;21.92;15.05;;;10.50;82.60;;;;;;4991649;28;20458;-64
2023/05/04 06:28:34;;;;;;;19.85;14.77;;;10.60;82.40;;;;;;4995411;28;20557;-64
2023/05/04 06:31:00;;;;;;;18.15;14.60;;;10.70;82.60;;;;;;4991824;28;20034;-64
2023/05/04 06:33:26;;;;;;;19.73;15.40;;;10.80;82.60;;;;;;4993060;28;20104;-64
2023/05/04 06:35:52;;;;;;;21.83;15.57;;;10.80;82.60;;;;;;4991616;28;20042;-63
2023/05/04 06:38:18;;;;;;;18.98;14.63;;;10.90;82.40;;;;;;4994079;28;20405;-63
2023/05/04 06:40:43;;;;;;;20.48;16.20;;;11.00;82.20;;;;;;4990909;28;20043;-64
2023/05/04 06:43:09;;;;;;;18.73;15.73;;;11.10;82.30;;;;;;4992389;28;20088;-63
2023/05/04 06:45:35;;;;;;;21.17;16.17;;;11.10;82.20;;;;;;4991973;28;20048;-64
2023/05/04 06:48:02;;;;;;;19.25;15.13;;;11.20;82.10;;;;;;4996955;28;20034;-64
2023/05/04 06:50:27;;;;;;;23.75;15.88;;;11.30;82.00;;;;;;4995272;28;20037;-64
2023/05/04 06:53:08;;;;;;;21.50;15.48;;;11.30;82.00;;;;;;4993674;28;20053;-64
2023/05/04 06:55:34;;;;;;;22.13;16.35;;;11.40;82.60;;;;;;5000763;28;20038;-64
2023/05/04 06:58:00;;;;;;;19.75;15.68;;;11.50;82.10;;;;;;4997707;28;20031;-64
2023/05/04 07:00:26;;;;;;;21.38;15.98;;;11.60;82.40;;;;;;4995757;28;20088;-64
2023/05/04 07:02:52;;;;;;;20.95;15.88;;;11.60;82.40;;;;;;4996578;28;20027;-63
2023/05/04 07:05:21;;;;;;;19.95;16.13;;;11.70;82.40;;;;;;4993698;28;20069;-64
2023/05/04 07:07:48;;;;;;;21.55;16.42;;;11.80;82.60;;;;;;4992615;28;20034;-64
2023/05/04 07:10:14;;;;;;;21.50;15.68;;;11.80;82.30;;;;;;4995363;28;20466;-64
2023/05/04 07:12:40;;;;;;;20.40;16.23;;;11.90;82.30;;;;;;4995011;28;20117;-64
2023/05/04 07:15:07;;;;;;;18.88;15.15;;;12.00;82.30;;;;;;4996003;28;20061;-64
2023/05/04 07:17:33;;;;;;;20.45;16.42;;;12.00;82.30;;;;;;4996152;28;20034;-64
2023/05/04 07:20:01;;;;;;;19.17;15.40;;;12.10;82.60;;;;;;4993620;28;20080;-64
2023/05/04 07:22:27;;;;;;;22.05;16.27;;;12.20;82.50;;;;;;4993201;28;20050;-64
2023/05/04 07:24:53;;;;;;;28.33;16.45;;;12.30;82.60;;;;;;4995059;28;20085;-64
2023/05/04 07:27:18;;;;;;;21.25;17.15;;;12.40;82.60;;;;;;4998145;28;20417;-64
2023/05/04 07:29:44;;;;;;;22.63;16.45;;;12.50;82.60;;;;;;4997684;28;20037;-64
2023/05/04 07:32:10;;;;;;;21.45;15.88;;;12.50;82.20;;;;;;4998213;28;20038;-64
2023/05/04 07:34:35;;;;;;;19.67;14.98;;;12.60;82.20;;;;;;4995861;28;20129;-64
2023/05/04 07:37:04;;;;;;;20.83;16.00;;;12.70;82.40;;;;;;4996999;28;20486;-64
2023/05/04 07:39:30;;;;;;;21.75;16.65;;;12.80;82.20;;;;;;4996878;28;20365;-64
2023/05/04 07:41:55;;;;;;;19.52;15.43;;;12.80;82.00;;;;;;4997684;28;20056;-64
2023/05/04 07:44:21;;;;;;;20.30;16.33;;;12.90;81.70;;;;;;4996193;28;20045;-64
2023/05/04 07:46:46;;;;;;;22.10;15.43;;;13.00;81.80;;;;;;4996928;28;20169;-64
2023/05/04 07:49:12;;;;;;;19.38;16.05;;;13.10;81.80;;;;;;4996274;28;20048;-64
2023/05/04 07:51:38;;;;;;;21.00;16.05;;;13.20;81.20;;;;;;4997520;28;20228;-64
2023/05/04 07:54:03;;;;;;;20.95;15.73;;;13.30;81.20;;;;;;4995055;28;20046;-64
2023/05/04 07:56:29;;;;;;;18.38;15.40;;;13.40;81.00;;;;;;4992999;28;20045;-65
2023/05/04 07:58:55;;;;;;;19.08;15.82;;;13.50;80.60;;;;;;4991667;28;20042;-64
2023/05/04 08:01:20;;;;;;;18.98;16.40;;;13.60;80.60;;;;;;4991162;28;20129;-64
2023/05/04 08:03:46;;;;;;;18.48;15.50;;;13.70;80.80;;;;;;4992291;28;20057;-63
2023/05/04 08:06:12;;;;;;;23.13;15.82;;;13.80;80.80;;;;;;4996534;28;20042;-64
2023/05/04 08:08:37;;;;;;;17.70;14.48;;;13.90;80.40;;;;;;4993831;28;20046;-64
2023/05/04 08:11:03;;;;;;;18.02;14.30;;;14.00;79.60;;;;;;5001128;28;20038;-64
2023/05/04 08:13:29;;;;;;;16.02;13.77;;;14.10;79.40;;;;;;4996581;28;20409;-64
2023/05/04 08:15:59;;;;;;;17.92;14.48;;;14.20;79.40;;;;;;4994990;28;20093;-64
2023/05/04 08:18:26;;;;;;;16.85;14.45;;;14.30;79.60;;;;;;4995901;28;20136;-64
2023/05/04 08:20:52;;;;;;;16.42;14.00;;;14.40;79.20;;;;;;4993766;28;20187;-64
2023/05/04 08:23:18;;;;;;;15.45;13.43;;;14.50;78.80;;;;;;4994154;28;20035;-64
2023/05/04 08:25:43;;;;;;;17.55;13.20;;;14.50;78.40;;;;;;4996004;28;20489;-64
2023/05/04 08:28:09;;;;;;;16.33;12.55;;;14.60;78.60;;;;;;4995971;28;20048;-64
2023/05/04 08:30:36;;;;;;;14.57;12.63;;;14.80;78.50;;;;;;4996968;28;20035;-65
2023/05/04 08:33:02;;;;;;;15.98;11.98;;;14.90;78.40;;;;;;4994755;28;20069;-64
2023/05/04 08:35:27;;;;;;;16.48;13.02;;;15.00;78.20;;;;;;4997385;28;20368;-64
2023/05/04 08:37:53;;;;;;;15.50;12.25;;;15.10;77.90;;;;;;4995097;28;20022;-64
2023/05/04 08:40:19;;;;;;;12.80;11.00;;;15.20;77.70;;;;;;4995811;28;20084;-64
2023/05/04 08:42:49;;;;;;;13.85;11.90;;;15.40;77.20;;;;;;4996046;28;20403;-64
2023/05/04 08:45:16;;;;;;;13.27;11.88;;;15.50;77.10;;;;;;4993491;28;20441;-64
2023/05/04 08:47:42;;;;;;;12.75;10.70;;;15.60;76.90;;;;;;4995870;28;20038;-64
2023/05/04 08:50:09;;;;;;;12.32;10.88;;;15.80;76.50;;;;;;4995103;28;20031;-64
2023/05/04 08:52:37;;;;;;;13.60;10.40;;;15.90;76.10;;;;;;4995822;28;20117;-64
2023/05/04 08:55:05;;;;;;;11.38;10.10;;;16.00;74.70;;;;;;4996116;28;20508;-64
2023/05/04 08:57:32;;;;;;;10.25;9.18;;;16.10;74.40;;;;;;4994435;28;20121;-64
2023/05/04 09:00:00;;;;;;;11.75;9.32;;;16.30;74.60;;;;;;4992008;28;20029;-64
2023/05/04 09:02:26;;;;;;;8.45;7.65;;;16.40;74.00;;;;;;4993585;28;20048;-64
2023/05/04 09:04:52;;;;;;;10.68;9.10;;;16.50;73.90;;;;;;4992730;28;20045;-64
2023/05/04 09:07:19;;;;;;;9.88;8.88;;;16.70;73.70;;;;;;4994736;28;20481;-64
2023/05/04 09:09:46;;;;;;;9.85;8.85;;;16.80;73.30;;;;;;4994929;28;20378;-64
2023/05/04 09:12:12;;;;;;;11.68;9.02;;;16.90;72.60;;;;;;4996716;28;20065;-64
2023/05/04 09:14:38;;;;;;;9.63;8.63;;;17.10;72.10;;;;;;4992870;28;20112;-64
2023/05/04 09:17:13;;;;;;;9.63;8.73;;;17.20;71.80;;;;;;4992143;28;20042;-64
2023/05/04 09:19:42;;;;;;;10.68;9.57;;;17.40;70.50;;;;;;4992656;28;20038;-64
2023/05/04 09:22:18;;;;;;;10.18;9.18;;;17.50;70.70;;;;;;4991404;28;20589;-64
2023/05/04 09:24:44;;;;;;;9.80;8.80;;;17.60;70.10;;;;;;4994022;28;20042;-64
2023/05/04 09:27:15;;;;;;;10.23;9.23;;;17.70;69.90;;;;;;4991520;28;20122;-64
2023/05/04 09:29:41;;;;;;;9.27;8.38;;;17.80;68.90;;;;;;4994038;28;20044;-63
2023/05/04 09:32:11;;;;;;;11.13;7.75;;;18.00;69.30;;;;;;4995146;28;20140;-64
2023/05/04 09:34:48;;;;;;;8.27;7.45;;;18.10;68.50;;;;;;4993413;28;20034;-64
2023/05/04 09:37:14;;;;;;;9.38;8.48;;;18.20;67.10;;;;;;4994963;28;20042;-64
2023/05/04 09:39:57;;;;;;;8.05;7.35;;;18.40;67.60;;;;;;4996036;28;20510;-64
2023/05/04 09:42:25;;;;;;;13.00;7.47;;;18.50;67.10;;;;;;4996424;28;20034;-64
2023/05/04 09:45:07;;;;;;;15.07;8.77;;;18.60;66.90;;;;;;4996116;28;20499;-64
2023/05/04 09:47:38;;;;;;;9.38;7.40;;;18.70;65.30;;;;;;4995544;28;20046;-64
2023/05/04 09:50:28;;;;;;;7.82;7.13;;;18.90;65.80;;;;;;4995317;28;20200;-64
2023/05/04 09:52:55;;;;;;;7.68;5.68;;;19.00;64.70;;;;;;4996777;28;20038;-64
2023/05/04 09:55:20;;;;;;;6.25;5.65;;;19.10;65.20;;;;;;4994962;28;20054;-64
2023/05/04 09:57:49;;;;;;;5.53;5.13;;;19.20;64.80;;;;;;4996385;28;20030;-64
2023/05/04 10:00:16;;;;;;;5.47;4.97;;;19.30;63.60;;;;;;4995585;28;20038;-65
2023/05/04 10:02:45;;;;;;;4.22;3.92;;;19.40;62.90;;;;;;4995591;28;20133;-64
2023/05/04 10:05:16;;;;;;;5.63;4.30;;;19.50;61.50;;;;;;4993796;28;20030;-64
2023/05/04 10:07:45;;;;;;;5.13;3.88;;;19.60;61.10;;;;;;4995426;28;20038;-63
2023/05/04 10:10:14;;;;;;;4.20;3.85;;;19.70;60.90;;;;;;4991616;28;20044;-64
2023/05/04 10:12:40;;;;;;;6.03;5.43;;;19.80;60.00;;;;;;4988715;28;20027;-64
2023/05/04 10:15:07;;;;;;;4.30;3.83;;;19.80;60.30;;;;;;4995069;28;20413;-65
2023/05/04 10:18:07;;;;;;;4.15;3.85;;;19.90;59.60;;;;;;4995362;28;20030;-64
2023/05/04 10:20:42;;;;;;;3.65;3.35;;;20.00;58.20;;;;;;4995135;28;20033;-65
2023/05/04 10:24:01;;;;;;;4.35;4.03;;;20.10;58.30;;;;;;4997745;28;20046;-64
2023/05/04 10:27:16;;;;;;;4.50;4.10;;;20.20;57.30;;;;;;5003237;28;20038;-64
2023/05/04 10:29:46;;;;;;;4.53;4.22;;;20.30;57.30;;;;;;4998009;28;20037;-64
2023/05/04 10:32:22;;;;;;;4.28;3.97;;;20.40;58.60;;;;;;5014121;28;20030;-64
2023/05/04 10:34:47;;;;;;;5.03;4.40;;;20.40;57.40;;;;;;5017135;28;20073;-64
2023/05/04 10:37:20;;;;;;;4.75;4.15;;;20.50;58.00;;;;;;5019289;28;20528;-64
2023/05/04 10:39:53;;;;;;;4.65;3.88;;;20.50;56.40;;;;;;5018440;28;20120;-64
2023/05/04 10:42:19;;;;;;;4.35;3.72;;;20.60;57.10;;;;;;5019092;28;20048;-64
2023/05/04 10:44:55;;;;;;;3.00;2.80;;;20.60;57.40;;;;;;5017037;28;20133;-65
2023/05/04 10:47:31;;;;;;;8.05;3.72;;;20.70;55.70;;;;;;5014874;28;20033;-64
2023/05/04 10:50:09;;;;;;;3.08;2.75;;;20.80;55.60;;;;;;5020161;28;20920;-64
2023/05/04 10:52:48;;;;;;;3.38;3.13;;;20.80;55.20;;;;;;5018785;28;20037;-64
2023/05/04 10:55:15;;;;;;;3.67;3.40;;;20.80;55.00;;;;;;5012015;28;20150;-64
2023/05/04 10:57:49;;;;;;;2.95;2.47;;;20.90;56.10;;;;;;4999470;28;20034;-64
2023/05/04 11:00:15;;;;;;;2.35;2.20;;;21.00;53.90;;;;;;4999023;28;20439;-64
2023/05/04 11:02:41;;;;;;;3.40;2.45;;;21.00;54.50;;;;;;4998964;28;20491;-64
2023/05/04 11:05:08;;;;;;;3.00;2.70;;;21.10;54.20;;;;;;4996485;28;20047;-64
2023/05/04 11:07:37;;;;;;;2.88;2.67;;;21.10;53.30;;;;;;4998238;28;20045;-64
2023/05/04 11:10:08;;;;;;;3.00;2.70;;;21.10;53.00;;;;;;4996985;28;20034;-64
2023/05/04 11:12:36;;;;;;;2.70;2.50;;;21.20;52.00;;;;;;4996400;28;20034;-65
2023/05/04 11:15:11;;;;;;;3.20;2.92;;;21.20;53.20;;;;;;4996666;28;20041;-64
2023/05/04 11:17:50;;;;;;;4.20;2.95;;;21.20;53.00;;;;;;4998267;28;20125;-64
2023/05/04 11:20:19;;;;;;;3.72;3.50;;;21.30;52.20;;;;;;4997502;28;20040;-64
2023/05/04 11:22:45;;;;;;;3.20;2.95;;;21.30;52.60;;;;;;4998124;28;20048;-64
2023/05/04 11:25:10;;;;;;;3.78;3.30;;;21.30;53.00;;;;;;4998011;28;20043;-64
2023/05/04 11:27:36;;;;;;;3.45;3.15;;;21.40;53.20;;;;;;4997255;28;20030;-64
2023/05/04 11:30:03;;;;;;;3.67;3.35;;;21.50;53.20;;;;;;4997382;28;20030;-65
2023/05/04 11:32:45;;;;;;;3.42;3.20;;;21.50;52.70;;;;;;4997694;28;20041;-64
2023/05/04 11:35:16;;;;;;;3.30;3.00;;;21.50;50.30;;;;;;4994371;28;20038;-64
2023/05/04 11:37:43;;;;;;;4.97;2.92;;;21.60;52.00;;;;;;4999293;28;20042;-64
2023/05/04 11:40:12;;;;;;;3.53;3.22;;;21.60;52.70;;;;;;4997941;28;20045;-64
2023/05/04 11:42:39;;;;;;;3.15;2.85;;;21.70;52.10;;;;;;4998183;28;20038;-64
2023/05/04 11:45:11;;;;;;;3.38;3.08;;;21.70;52.40;;;;;;4996349;28;20041;-64
2023/05/04 11:47:37;;;;;;;2.97;2.78;;;21.80;51.70;;;;;;4996971;28;20056;-64
2023/05/04 11:50:05;;;;;;;7.40;2.40;;;21.80;51.90;;;;;;4995511;28;20418;-64
2023/05/04 11:52:34;;;;;;;3.10;2.90;;;21.90;51.70;;;;;;4995614;28;20038;-64
2023/05/04 11:55:00;;;;;;;2.85;2.65;;;21.90;51.60;;;;;;4996556;28;20446;-64
2023/05/04 11:57:26;;;;;;;3.53;3.22;;;22.00;51.90;;;;;;4998107;28;20117;-64
2023/05/04 11:59:51;;;;;;;3.35;2.67;;;22.00;50.50;;;;;;4995109;28;20461;-64
2023/05/04 12:02:17;;;;;;;3.70;3.40;;;22.00;50.90;;;;;;4996092;28;20729;-65
2023/05/04 12:04:43;;;;;;;4.07;3.63;;;22.00;51.50;;;;;;4996518;28;20113;-64
2023/05/04 12:07:09;;;;;;;3.67;3.20;;;22.10;52.00;;;;;;4997232;28;20042;-64
2023/05/04 12:09:48;;;;;;;3.50;3.20;;;22.20;51.90;;;;;;4997713;28;20495;-65
2023/05/04 12:12:15;;;;;;;4.80;3.10;;;22.20;50.20;;;;;;4997221;28;20183;-64
2023/05/04 12:14:52;;;;;;;3.72;3.42;;;22.20;51.50;;;;;;4997208;28;20156;-64
2023/05/04 12:17:19;;;;;;;3.33;3.03;;;22.30;50.10;;;;;;4997860;28;20373;-64
2023/05/04 12:19:54;;;;;;;3.05;2.72;;;22.30;50.60;;;;;;4996845;28;20069;-65
2023/05/04 12:22:31;;;;;;;3.63;3.13;;;22.30;50.40;;;;;;4994622;28;20042;-64
2023/05/04 12:24:58;;;;;;;3.80;3.50;;;22.30;49.60;;;;;;4994678;28;20093;-65
2023/05/04 12:27:27;;;;;;;3.95;3.20;;;22.40;50.50;;;;;;4996322;28;20030;-64
2023/05/04 12:29:53;;;;;;;3.10;2.90;;;22.40;50.20;;;;;;4996446;28;20316;-64
2023/05/04 12:32:19;;;;;;;5.40;3.03;;;22.50;50.00;;;;;;4998684;28;20258;-64
2023/05/04 12:34:45;;;;;;;3.50;3.20;;;22.50;50.10;;;;;;4999077;28;20034;-65
2023/05/04 12:37:10;;;;;;;4.43;3.10;;;22.60;49.70;;;;;;4998174;28;20045;-64
2023/05/04 12:39:36;;;;;;;8.23;2.72;;;22.50;49.90;;;;;;4997308;28;20054;-64